sensor_id;sensor_type;location;lat;lon;timestamp;pressure;altitude;pressure_sealevel;temperature;humidity
21185;BME280;18176;49.502;11.754;2023-04-06T00:03:27;97249.22;;;3.72;54.56
21185;BME280;18176;49.502;11.754;2023-04-06T00:07:28;97248.00;;;3.60;55.02
21185;BME280;18176;49.502;11.754;2023-04-06T00:11:30;97244.22;;;3.62;54.68
21185;BME280;18176;49.502;11.754;2023-04-06T00:15:34;97253.25;;;3.60;54.89
21185;BME280;18176;49.502;11.754;2023-04-06T00:19:34;97244.47;;;3.52;54.83
21185;BME280;18176;49.502;11.754;2023-04-06T00:23:37;97238.97;;;3.47;55.43
21185;BME280;18176;49.502;11.754;2023-04-06T00:27:38;97243.00;;;3.35;55.73
21185;BME280;18176;49.502;11.754;2023-04-06T00:31:41;97234.16;;;3.36;55.27
21185;BME280;18176;49.502;11.754;2023-04-06T00:35:42;97236.50;;;3.31;55.64
21185;BME280;18176;49.502;11.754;2023-04-06T00:39:43;97235.94;;;3.21;56.30
21185;BME280;18176;49.502;11.754;2023-04-06T00:43:43;97233.47;;;3.42;55.73
21185;BME280;18176;49.502;11.754;2023-04-06T00:47:46;97235.66;;;3.53;55.50
21185;BME280;18176;49.502;11.754;2023-04-06T00:51:47;97229.78;;;3.51;55.83
21185;BME280;18176;49.502;11.754;2023-04-06T00:55:48;97235.56;;;3.76;55.55
21185;BME280;18176;49.502;11.754;2023-04-06T00:59:49;97238.47;;;4.10;54.86
21185;BME280;18176;49.502;11.754;2023-04-06T01:03:53;97231.03;;;4.28;54.09
21185;BME280;18176;49.502;11.754;2023-04-06T01:07:53;97234.81;;;4.41;53.88
21185;BME280;18176;49.502;11.754;2023-04-06T01:11:58;97232.53;;;4.52;53.63
21185;BME280;18176;49.502;11.754;2023-04-06T01:16:02;97226.81;;;4.63;53.27
21185;BME280;18176;49.502;11.754;2023-04-06T01:20:22;97227.88;;;4.69;53.12
21185;BME280;18176;49.502;11.754;2023-04-06T01:24:26;97231.56;;;4.74;52.85
21185;BME280;18176;49.502;11.754;2023-04-06T01:28:35;97234.44;;;4.79;52.62
21185;BME280;18176;49.502;11.754;2023-04-06T01:32:47;97207.94;;;4.74;52.57
21185;BME280;18176;49.502;11.754;2023-04-06T01:36:57;97226.22;;;5.04;52.38
21185;BME280;18176;49.502;11.754;2023-04-06T01:41:03;97223.47;;;5.12;52.39
21185;BME280;18176;49.502;11.754;2023-04-06T01:45:15;97220.72;;;5.20;52.16
21185;BME280;18176;49.502;11.754;2023-04-06T01:49:16;97219.44;;;5.37;51.86
21185;BME280;18176;49.502;11.754;2023-04-06T01:53:22;97207.22;;;5.50;51.57
21185;BME280;18176;49.502;11.754;2023-04-06T01:57:32;97210.53;;;5.59;51.28
21185;BME280;18176;49.502;11.754;2023-04-06T02:01:46;97217.38;;;5.60;51.15
21185;BME280;18176;49.502;11.754;2023-04-06T02:05:48;97184.91;;;5.40;51.45
21185;BME280;18176;49.502;11.754;2023-04-06T02:10:00;97212.41;;;5.72;51.07
21185;BME280;18176;49.502;11.754;2023-04-06T02:14:09;97211.47;;;5.79;50.72
21185;BME280;18176;49.502;11.754;2023-04-06T02:18:16;97204.78;;;5.49;51.49
21185;BME280;18176;49.502;11.754;2023-04-06T02:22:17;97209.25;;;5.55;51.34
21185;BME280;18176;49.502;11.754;2023-04-06T02:26:18;97206.41;;;5.50;51.36
21185;BME280;18176;49.502;11.754;2023-04-06T02:30:21;97199.84;;;5.39;51.89
21185;BME280;18176;49.502;11.754;2023-04-06T02:34:21;97202.31;;;5.41;52.01
21185;BME280;18176;49.502;11.754;2023-04-06T02:38:24;97202.50;;;5.18;52.47
21185;BME280;18176;49.502;11.754;2023-04-06T02:42:24;97199.56;;;5.07;52.80
21185;BME280;18176;49.502;11.754;2023-04-06T02:46:28;97205.22;;;5.04;52.56
21185;BME280;18176;49.502;11.754;2023-04-06T02:50:29;97204.22;;;4.83;53.18
21185;BME280;18176;49.502;11.754;2023-04-06T02:54:33;97199.69;;;4.77;53.17
21185;BME280;18176;49.502;11.754;2023-04-06T02:58:34;97200.19;;;4.66;53.64
21185;BME280;18176;49.502;11.754;2023-04-06T03:02:37;97203.94;;;4.57;53.64
21185;BME280;18176;49.502;11.754;2023-04-06T03:06:42;97204.78;;;4.43;54.45
21185;BME280;18176;49.502;11.754;2023-04-06T03:10:52;97209.63;;;4.25;54.47
21185;BME280;18176;49.502;11.754;2023-04-06T03:15:01;97212.44;;;4.23;54.65
21185;BME280;18176;49.502;11.754;2023-04-06T03:19:05;97203.22;;;4.13;54.97
21185;BME280;18176;49.502;11.754;2023-04-06T03:23:06;97213.81;;;4.05;55.00
21185;BME280;18176;49.502;11.754;2023-04-06T03:27:10;97206.03;;;3.97;55.38
21185;BME280;18176;49.502;11.754;2023-04-06T03:31:11;97212.91;;;3.98;55.38
21185;BME280;18176;49.502;11.754;2023-04-06T03:35:32;97217.59;;;3.88;55.67
21185;BME280;18176;49.502;11.754;2023-04-06T03:39:34;97223.19;;;3.85;55.76
21185;BME280;18176;49.502;11.754;2023-04-06T03:43:35;97219.78;;;3.84;56.23
21185;BME280;18176;49.502;11.754;2023-04-06T03:47:36;97230.25;;;3.99;55.58
21185;BME280;18176;49.502;11.754;2023-04-06T03:51:41;97232.31;;;4.03;55.97
21185;BME280;18176;49.502;11.754;2023-04-06T03:55:42;97228.34;;;4.22;55.21
21185;BME280;18176;49.502;11.754;2023-04-06T03:59:42;97233.31;;;4.17;55.61
21185;BME280;18176;49.502;11.754;2023-04-06T04:03:43;97233.31;;;4.17;55.68
21185;BME280;18176;49.502;11.754;2023-04-06T04:07:50;97219.56;;;4.15;55.54
21185;BME280;18176;49.502;11.754;2023-04-06T04:11:54;97236.19;;;4.22;55.21
21185;BME280;18176;49.502;11.754;2023-04-06T04:15:55;97226.25;;;4.17;55.07
21185;BME280;18176;49.502;11.754;2023-04-06T04:19:56;97234.78;;;4.05;55.28
21185;BME280;18176;49.502;11.754;2023-04-06T04:23:59;97237.56;;;4.03;55.17
21185;BME280;18176;49.502;11.754;2023-04-06T04:28:02;97239.56;;;4.01;54.90
21185;BME280;18176;49.502;11.754;2023-04-06T04:32:04;97229.00;;;3.95;54.72
21185;BME280;18176;49.502;11.754;2023-04-06T04:36:06;97232.31;;;3.74;54.68
21185;BME280;18176;49.502;11.754;2023-04-06T04:40:14;97240.41;;;3.50;55.36
21185;BME280;18176;49.502;11.754;2023-04-06T04:44:27;97228.38;;;3.26;55.46
21185;BME280;18176;49.502;11.754;2023-04-06T04:48:28;97232.97;;;3.39;55.62
21185;BME280;18176;49.502;11.754;2023-04-06T04:52:34;97228.13;;;3.36;55.37
21185;BME280;18176;49.502;11.754;2023-04-06T04:56:47;97237.50;;;3.30;55.58
21185;BME280;18176;49.502;11.754;2023-04-06T05:01:04;97233.13;;;3.23;55.91
21185;BME280;18176;49.502;11.754;2023-04-06T05:05:06;97236.84;;;3.28;55.83
21185;BME280;18176;49.502;11.754;2023-04-06T05:09:08;97234.28;;;3.20;55.64
21185;BME280;18176;49.502;11.754;2023-04-06T05:13:14;97234.88;;;3.30;56.28
21185;BME280;18176;49.502;11.754;2023-04-06T05:17:17;97232.03;;;3.54;56.92
21185;BME280;18176;49.502;11.754;2023-04-06T05:21:18;97241.91;;;3.67;56.71
21185;BME280;18176;49.502;11.754;2023-04-06T05:25:26;97240.28;;;4.10;57.87
21185;BME280;18176;49.502;11.754;2023-04-06T05:29:35;97258.00;;;4.22;57.25
21185;BME280;18176;49.502;11.754;2023-04-06T05:33:36;97255.56;;;4.21;56.43
21185;BME280;18176;49.502;11.754;2023-04-06T05:37:42;97245.34;;;4.11;55.93
21185;BME280;18176;49.502;11.754;2023-04-06T05:41:44;97251.41;;;4.12;55.36
21185;BME280;18176;49.502;11.754;2023-04-06T05:45:49;97251.03;;;4.15;55.61
21185;BME280;18176;49.502;11.754;2023-04-06T05:49:50;97255.09;;;4.17;55.28
21185;BME280;18176;49.502;11.754;2023-04-06T05:54:01;97254.09;;;4.33;55.29
21185;BME280;18176;49.502;11.754;2023-04-06T05:58:04;97259.59;;;4.53;55.00
21185;BME280;18176;49.502;11.754;2023-04-06T06:02:08;97265.44;;;4.69;54.79
21185;BME280;18176;49.502;11.754;2023-04-06T06:06:13;97265.59;;;4.82;54.12
21185;BME280;18176;49.502;11.754;2023-04-06T06:10:34;97272.25;;;5.00;53.93
21185;BME280;18176;49.502;11.754;2023-04-06T06:14:37;97267.75;;;5.15;53.63
21185;BME280;18176;49.502;11.754;2023-04-06T06:18:40;97268.81;;;5.20;53.63
21185;BME280;18176;49.502;11.754;2023-04-06T06:22:41;97259.72;;;5.44;53.15
21185;BME280;18176;49.502;11.754;2023-04-06T06:26:49;97268.91;;;5.54;52.99
21185;BME280;18176;49.502;11.754;2023-04-06T06:30:52;97258.16;;;5.77;52.45
21185;BME280;18176;49.502;11.754;2023-04-06T06:34:57;97253.25;;;5.95;51.93
21185;BME280;18176;49.502;11.754;2023-04-06T06:38:58;97263.84;;;6.08;51.42
21185;BME280;18176;49.502;11.754;2023-04-06T06:43:01;97265.94;;;6.19;51.02
21185;BME280;18176;49.502;11.754;2023-04-06T06:47:18;97270.50;;;6.38;50.45
21185;BME280;18176;49.502;11.754;2023-04-06T06:51:22;97267.75;;;6.53;49.79
21185;BME280;18176;49.502;11.754;2023-04-06T06:55:22;97273.50;;;6.70;49.65
21185;BME280;18176;49.502;11.754;2023-04-06T06:59:24;97272.72;;;6.89;49.49
21185;BME280;18176;49.502;11.754;2023-04-06T07:03:24;97265.91;;;7.14;48.82
21185;BME280;18176;49.502;11.754;2023-04-06T07:07:28;97269.97;;;7.23;48.83
21185;BME280;18176;49.502;11.754;2023-04-06T07:11:29;97273.66;;;7.35;47.61
21185;BME280;18176;49.502;11.754;2023-04-06T07:15:30;97271.63;;;7.44;45.90
21185;BME280;18176;49.502;11.754;2023-04-06T07:19:31;97259.47;;;7.75;46.07
21185;BME280;18176;49.502;11.754;2023-04-06T07:23:34;97275.66;;;8.12;45.14
21185;BME280;18176;49.502;11.754;2023-04-06T07:27:36;97279.72;;;8.21;43.93
21185;BME280;18176;49.502;11.754;2023-04-06T07:31:37;97279.63;;;8.60;43.61
21185;BME280;18176;49.502;11.754;2023-04-06T07:35:38;97278.38;;;8.69;43.18
21185;BME280;18176;49.502;11.754;2023-04-06T07:39:43;97283.19;;;8.85;42.73
21185;BME280;18176;49.502;11.754;2023-04-06T07:43:44;97279.50;;;8.93;42.56
21185;BME280;18176;49.502;11.754;2023-04-06T07:47:46;97274.84;;;9.26;42.00
21185;BME280;18176;49.502;11.754;2023-04-06T07:51:47;97268.22;;;9.42;41.70
21185;BME280;18176;49.502;11.754;2023-04-06T07:55:50;97268.59;;;10.01;41.46
21185;BME280;18176;49.502;11.754;2023-04-06T07:59:51;97271.06;;;9.96;39.83
21185;BME280;18176;49.502;11.754;2023-04-06T08:03:52;97267.59;;;10.20;39.63
21185;BME280;18176;49.502;11.754;2023-04-06T08:07:53;97255.75;;;10.95;38.42
21185;BME280;18176;49.502;11.754;2023-04-06T08:11:56;97260.84;;;11.79;37.48
21185;BME280;18176;49.502;11.754;2023-04-06T08:16:01;97261.38;;;12.74;36.42
21185;BME280;18176;49.502;11.754;2023-04-06T08:20:03;97248.19;;;13.35;35.52
21185;BME280;18176;49.502;11.754;2023-04-06T08:24:05;97260.44;;;13.65;34.75
21185;BME280;18176;49.502;11.754;2023-04-06T08:28:09;97260.56;;;14.41;34.34
21185;BME280;18176;49.502;11.754;2023-04-06T08:32:11;97249.13;;;14.62;33.55
21185;BME280;18176;49.502;11.754;2023-04-06T08:36:14;97251.34;;;15.14;32.88
21185;BME280;18176;49.502;11.754;2023-04-06T08:40:20;97250.63;;;15.72;32.46
21185;BME280;18176;49.502;11.754;2023-04-06T08:44:24;97245.50;;;15.70;30.76
21185;BME280;18176;49.502;11.754;2023-04-06T08:48:30;97244.94;;;16.37;30.53
21185;BME280;18176;49.502;11.754;2023-04-06T08:52:35;97248.81;;;15.82;31.18
21185;BME280;18176;49.502;11.754;2023-04-06T08:56:39;97242.16;;;16.22;30.27
21185;BME280;18176;49.502;11.754;2023-04-06T09:00:44;97246.81;;;16.88;29.24
21185;BME280;18176;49.502;11.754;2023-04-06T09:04:48;97245.34;;;17.27;29.14
21185;BME280;18176;49.502;11.754;2023-04-06T09:08:48;97242.22;;;17.56;28.23
21185;BME280;18176;49.502;11.754;2023-04-06T09:12:49;97228.78;;;18.36;27.23
21185;BME280;18176;49.502;11.754;2023-04-06T09:16:56;97229.25;;;18.63;27.41
21185;BME280;18176;49.502;11.754;2023-04-06T09:21:06;97229.16;;;18.93;25.19
21185;BME280;18176;49.502;11.754;2023-04-06T09:25:09;97229.75;;;18.85;25.46
21185;BME280;18176;49.502;11.754;2023-04-06T09:29:25;97230.69;;;19.10;25.19
21185;BME280;18176;49.502;11.754;2023-04-06T09:33:29;97223.97;;;21.18;24.16
21185;BME280;18176;49.502;11.754;2023-04-06T09:37:29;97220.25;;;20.48;23.08
21185;BME280;18176;49.502;11.754;2023-04-06T09:41:31;97211.94;;;20.16;23.29
21185;BME280;18176;49.502;11.754;2023-04-06T09:45:37;97207.91;;;17.88;23.68
21185;BME280;18176;49.502;11.754;2023-04-06T09:49:40;97224.63;;;16.41;26.90
21185;BME280;18176;49.502;11.754;2023-04-06T09:53:51;97201.53;;;19.32;24.53
21185;BME280;18176;49.502;11.754;2023-04-06T09:58:04;97204.69;;;21.30;22.29
21185;BME280;18176;49.502;11.754;2023-04-06T10:02:08;97205.69;;;20.73;22.27
21185;BME280;18176;49.502;11.754;2023-04-06T10:06:23;97215.22;;;18.86;23.70
21185;BME280;18176;49.502;11.754;2023-04-06T10:10:24;97211.13;;;17.80;24.65
21185;BME280;18176;49.502;11.754;2023-04-06T10:14:27;97199.47;;;19.19;24.34
21185;BME280;18176;49.502;11.754;2023-04-06T10:18:28;97197.66;;;20.68;22.85
21185;BME280;18176;49.502;11.754;2023-04-06T10:22:48;97182.50;;;19.28;23.05
21185;BME280;18176;49.502;11.754;2023-04-06T10:27:06;97180.19;;;19.07;23.90
21185;BME280;18176;49.502;11.754;2023-04-06T10:31:08;97166.66;;;22.01;22.35
21185;BME280;18176;49.502;11.754;2023-04-06T10:35:12;97168.22;;;24.26;20.65
21185;BME280;18176;49.502;11.754;2023-04-06T10:39:25;97168.81;;;25.02;18.70
21185;BME280;18176;49.502;11.754;2023-04-06T10:43:34;97165.63;;;25.17;18.43
21185;BME280;18176;49.502;11.754;2023-04-06T10:47:39;97166.56;;;25.21;18.46
21185;BME280;18176;49.502;11.754;2023-04-06T10:51:43;97159.75;;;25.75;18.41
21185;BME280;18176;49.502;11.754;2023-04-06T10:55:49;97160.00;;;26.16;16.99
21185;BME280;18176;49.502;11.754;2023-04-06T10:59:53;97151.06;;;24.79;17.49
21185;BME280;18176;49.502;11.754;2023-04-06T11:03:59;97157.13;;;23.92;17.69
21185;BME280;18176;49.502;11.754;2023-04-06T11:08:03;97144.53;;;26.00;17.52
21185;BME280;18176;49.502;11.754;2023-04-06T11:12:07;97147.25;;;25.05;17.01
21185;BME280;18176;49.502;11.754;2023-04-06T11:16:14;97140.53;;;26.14;16.97
21185;BME280;18176;49.502;11.754;2023-04-06T11:20:15;97127.91;;;26.85;16.17
21185;BME280;18176;49.502;11.754;2023-04-06T11:24:19;97128.47;;;25.35;17.98
21185;BME280;18176;49.502;11.754;2023-04-06T11:28:25;97123.41;;;24.20;18.15
21185;BME280;18176;49.502;11.754;2023-04-06T11:32:26;97122.44;;;24.73;17.04
21185;BME280;18176;49.502;11.754;2023-04-06T11:36:28;97117.09;;;24.98;17.77
21185;BME280;18176;49.502;11.754;2023-04-06T11:40:28;97112.03;;;25.31;16.81
21185;BME280;18176;49.502;11.754;2023-04-06T11:44:37;97108.88;;;26.56;17.20
21185;BME280;18176;49.502;11.754;2023-04-06T11:48:44;97095.75;;;27.82;15.48
21185;BME280;18176;49.502;11.754;2023-04-06T11:52:46;97096.31;;;28.44;14.99
21185;BME280;18176;49.502;11.754;2023-04-06T11:57:02;97104.75;;;26.04;16.15
21185;BME280;18176;49.502;11.754;2023-04-06T12:01:07;97103.47;;;24.16;17.16
21185;BME280;18176;49.502;11.754;2023-04-06T12:05:10;97104.72;;;22.99;17.86
21185;BME280;18176;49.502;11.754;2023-04-06T12:09:11;97101.06;;;21.22;19.65
21185;BME280;18176;49.502;11.754;2023-04-06T12:13:11;97098.75;;;20.55;20.23
21185;BME280;18176;49.502;11.754;2023-04-06T12:17:15;97092.00;;;20.76;20.03
21185;BME280;18176;49.502;11.754;2023-04-06T12:21:15;97090.03;;;20.15;20.33
21185;BME280;18176;49.502;11.754;2023-04-06T12:25:19;97082.81;;;20.77;20.09
21185;BME280;18176;49.502;11.754;2023-04-06T12:29:20;97081.75;;;23.33;18.78
21185;BME280;18176;49.502;11.754;2023-04-06T12:33:27;97068.56;;;25.83;17.54
21185;BME280;18176;49.502;11.754;2023-04-06T12:37:28;97055.97;;;27.57;17.11
21185;BME280;18176;49.502;11.754;2023-04-06T12:41:31;97060.88;;;28.57;15.20
21185;BME280;18176;49.502;11.754;2023-04-06T12:45:32;97049.00;;;29.01;14.61
21185;BME280;18176;49.502;11.754;2023-04-06T12:49:39;97054.19;;;29.18;14.69
21185;BME280;18176;49.502;11.754;2023-04-06T12:53:41;97042.59;;;27.31;15.81
21185;BME280;18176;49.502;11.754;2023-04-06T12:57:44;97053.84;;;25.84;16.17
21185;BME280;18176;49.502;11.754;2023-04-06T13:01:48;97043.69;;;26.97;16.37
21185;BME280;18176;49.502;11.754;2023-04-06T13:05:52;97036.28;;;27.72;15.82
21185;BME280;18176;49.502;11.754;2023-04-06T13:09:53;97042.81;;;29.28;15.09
21185;BME280;18176;49.502;11.754;2023-04-06T13:13:56;97034.69;;;30.34;14.49
21185;BME280;18176;49.502;11.754;2023-04-06T13:17:57;97045.09;;;28.14;14.36
21185;BME280;18176;49.502;11.754;2023-04-06T13:22:01;97034.50;;;24.79;16.59
21185;BME280;18176;49.502;11.754;2023-04-06T13:26:04;97034.56;;;23.17;17.72
21185;BME280;18176;49.502;11.754;2023-04-06T13:30:10;97037.00;;;22.82;17.77
21185;BME280;18176;49.502;11.754;2023-04-06T13:34:13;97024.63;;;24.83;17.19
21185;BME280;18176;49.502;11.754;2023-04-06T13:38:17;97032.63;;;23.92;17.35
21185;BME280;18176;49.502;11.754;2023-04-06T13:42:18;97026.59;;;24.34;16.77
21185;BME280;18176;49.502;11.754;2023-04-06T13:46:19;97030.63;;;24.63;17.01
21185;BME280;18176;49.502;11.754;2023-04-06T13:50:21;97017.84;;;22.70;17.85
21185;BME280;18176;49.502;11.754;2023-04-06T13:54:26;97024.97;;;23.33;18.21
21185;BME280;18176;49.502;11.754;2023-04-06T13:58:32;97012.47;;;24.63;17.30
21185;BME280;18176;49.502;11.754;2023-04-06T14:02:33;96996.38;;;25.18;16.35
21185;BME280;18176;49.502;11.754;2023-04-06T14:06:34;96973.34;;;23.34;17.93
21185;BME280;18176;49.502;11.754;2023-04-06T14:10:41;97003.91;;;21.73;17.87
21185;BME280;18176;49.502;11.754;2023-04-06T14:14:42;96997.28;;;23.80;17.59
21185;BME280;18176;49.502;11.754;2023-04-06T14:18:44;97003.81;;;25.55;16.52
21185;BME280;18176;49.502;11.754;2023-04-06T14:22:48;96998.78;;;23.64;17.19
21185;BME280;18176;49.502;11.754;2023-04-06T14:26:53;97005.91;;;21.67;18.78
21185;BME280;18176;49.502;11.754;2023-04-06T14:30:56;97005.22;;;22.16;19.01
21185;BME280;18176;49.502;11.754;2023-04-06T14:34:58;96993.03;;;22.68;18.73
21185;BME280;18176;49.502;11.754;2023-04-06T14:38:59;96997.31;;;23.97;17.29
21185;BME280;18176;49.502;11.754;2023-04-06T14:43:03;96994.38;;;22.79;17.75
21185;BME280;18176;49.502;11.754;2023-04-06T14:47:04;96991.88;;;23.27;18.09
21185;BME280;18176;49.502;11.754;2023-04-06T14:51:05;96983.31;;;25.03;17.41
21185;BME280;18176;49.502;11.754;2023-04-06T14:55:06;96982.16;;;25.21;16.31
21185;BME280;18176;49.502;11.754;2023-04-06T14:59:10;96973.47;;;25.53;16.85
21185;BME280;18176;49.502;11.754;2023-04-06T15:03:13;96984.41;;;24.33;17.34
21185;BME280;18176;49.502;11.754;2023-04-06T15:07:18;96969.88;;;25.32;16.79
21185;BME280;18176;49.502;11.754;2023-04-06T15:11:18;96961.53;;;25.84;16.11
21185;BME280;18176;49.502;11.754;2023-04-06T15:15:22;96974.81;;;24.27;16.75
21185;BME280;18176;49.502;11.754;2023-04-06T15:19:24;96972.34;;;23.61;17.22
21185;BME280;18176;49.502;11.754;2023-04-06T15:23:26;96967.69;;;23.92;17.44
21185;BME280;18176;49.502;11.754;2023-04-06T15:27:27;96969.34;;;22.87;17.36
21185;BME280;18176;49.502;11.754;2023-04-06T15:31:32;96984.63;;;21.80;17.95
21185;BME280;18176;49.502;11.754;2023-04-06T15:35:35;96971.69;;;22.31;17.80
21185;BME280;18176;49.502;11.754;2023-04-06T15:39:40;96983.50;;;20.38;19.33
21185;BME280;18176;49.502;11.754;2023-04-06T15:43:42;96979.84;;;20.29;20.09
21185;BME280;18176;49.502;11.754;2023-04-06T15:47:50;96978.91;;;20.76;19.53
21185;BME280;18176;49.502;11.754;2023-04-06T15:51:51;96986.50;;;19.89;19.98
21185;BME280;18176;49.502;11.754;2023-04-06T15:55:57;96978.66;;;21.23;19.95
21185;BME280;18176;49.502;11.754;2023-04-06T15:59:58;96964.44;;;22.67;18.34
21185;BME280;18176;49.502;11.754;2023-04-06T16:04:09;96964.78;;;22.03;18.44
21185;BME280;18176;49.502;11.754;2023-04-06T16:08:11;96965.84;;;22.65;18.10
21185;BME280;18176;49.502;11.754;2023-04-06T16:12:12;96971.19;;;23.23;18.37
21185;BME280;18176;49.502;11.754;2023-04-06T16:16:15;96961.22;;;23.10;18.50
21185;BME280;18176;49.502;11.754;2023-04-06T16:20:20;96967.38;;;23.46;17.85
21185;BME280;18176;49.502;11.754;2023-04-06T16:24:21;96964.09;;;23.04;17.96
21185;BME280;18176;49.502;11.754;2023-04-06T16:28:21;96972.78;;;23.01;18.31
21185;BME280;18176;49.502;11.754;2023-04-06T16:32:23;96976.59;;;22.29;18.62
21185;BME280;18176;49.502;11.754;2023-04-06T16:36:30;96961.19;;;20.14;20.10
21185;BME280;18176;49.502;11.754;2023-04-06T16:40:31;96981.28;;;18.64;21.75
21185;BME280;18176;49.502;11.754;2023-04-06T16:44:31;96978.09;;;18.08;22.39
21185;BME280;18176;49.502;11.754;2023-04-06T16:53:03;96984.94;;;17.76;23.08
21185;BME280;18176;49.502;11.754;2023-04-06T16:57:04;96979.03;;;17.79;23.57
21185;BME280;18176;49.502;11.754;2023-04-06T17:01:04;96983.75;;;18.02;23.27
21185;BME280;18176;49.502;11.754;2023-04-06T17:05:06;96976.78;;;18.01;23.20
21185;BME280;18176;49.502;11.754;2023-04-06T17:09:09;96970.31;;;18.07;23.38
21185;BME280;18176;49.502;11.754;2023-04-06T17:13:09;96975.28;;;17.75;23.16
21185;BME280;18176;49.502;11.754;2023-04-06T17:17:09;96947.81;;;17.19;23.29
21185;BME280;18176;49.502;11.754;2023-04-06T17:21:10;96959.34;;;16.99;23.41
21185;BME280;18176;49.502;11.754;2023-04-06T17:25:13;96975.44;;;16.59;24.56
21185;BME280;18176;49.502;11.754;2023-04-06T17:29:14;96986.56;;;16.21;25.07
21185;BME280;18176;49.502;11.754;2023-04-06T17:33:14;96988.13;;;16.01;25.20
21185;BME280;18176;49.502;11.754;2023-04-06T17:37:15;96992.00;;;15.69;25.97
21185;BME280;18176;49.502;11.754;2023-04-06T17:41:18;96993.22;;;15.46;26.76
21185;BME280;18176;49.502;11.754;2023-04-06T17:45:19;96995.97;;;15.19;27.61
21185;BME280;18176;49.502;11.754;2023-04-06T17:49:19;96979.09;;;14.77;28.43
21185;BME280;18176;49.502;11.754;2023-04-06T17:53:19;96984.53;;;14.07;29.72
21185;BME280;18176;49.502;11.754;2023-04-06T17:57:22;97011.56;;;13.94;30.63
21185;BME280;18176;49.502;11.754;2023-04-06T18:01:23;97012.88;;;13.70;31.05
21185;BME280;18176;49.502;11.754;2023-04-06T18:05:24;97018.44;;;13.47;31.69
21185;BME280;18176;49.502;11.754;2023-04-06T18:09:25;97011.28;;;13.30;32.20
21185;BME280;18176;49.502;11.754;2023-04-06T18:13:28;97026.69;;;12.95;32.73
21185;BME280;18176;49.502;11.754;2023-04-06T18:17:28;97030.44;;;12.83;33.21
21185;BME280;18176;49.502;11.754;2023-04-06T18:21:29;97026.09;;;12.60;34.54
21185;BME280;18176;49.502;11.754;2023-04-06T18:25:30;97038.63;;;12.48;35.12
21185;BME280;18176;49.502;11.754;2023-04-06T18:29:33;97036.78;;;12.20;35.99
21185;BME280;18176;49.502;11.754;2023-04-06T18:33:33;97042.59;;;12.17;36.22
21185;BME280;18176;49.502;11.754;2023-04-06T18:37:34;97041.84;;;11.93;37.31
21185;BME280;18176;49.502;11.754;2023-04-06T18:41:35;97051.47;;;11.83;37.77
21185;BME280;18176;49.502;11.754;2023-04-06T18:45:38;97038.41;;;11.58;38.37
21185;BME280;18176;49.502;11.754;2023-04-06T18:49:39;97036.81;;;11.57;38.28
21185;BME280;18176;49.502;11.754;2023-04-06T18:53:40;97047.56;;;11.51;39.47
21185;BME280;18176;49.502;11.754;2023-04-06T18:57:40;97053.44;;;11.41;39.73
21185;BME280;18176;49.502;11.754;2023-04-06T19:01:43;97049.75;;;11.19;40.08
21185;BME280;18176;49.502;11.754;2023-04-06T19:05:48;97055.50;;;10.93;41.04
21185;BME280;18176;49.502;11.754;2023-04-06T19:09:49;97068.91;;;10.98;41.84
21185;BME280;18176;49.502;11.754;2023-04-06T19:13:50;97064.25;;;10.82;42.20
21185;BME280;18176;49.502;11.754;2023-04-06T19:17:53;97056.38;;;10.64;42.67
21185;BME280;18176;49.502;11.754;2023-04-06T19:21:54;97066.44;;;10.43;43.29
21185;BME280;18176;49.502;11.754;2023-04-06T19:25:56;97032.06;;;10.07;43.99
21185;BME280;18176;49.502;11.754;2023-04-06T19:29:57;97067.44;;;10.31;43.72
21185;BME280;18176;49.502;11.754;2023-04-06T19:34:00;97071.06;;;10.18;44.46
21185;BME280;18176;49.502;11.754;2023-04-06T19:38:01;97071.78;;;10.07;44.48
21185;BME280;18176;49.502;11.754;2023-04-06T19:42:01;97070.31;;;9.93;44.44
21185;BME280;18176;49.502;11.754;2023-04-06T19:46:02;97073.72;;;9.82;44.76
21185;BME280;18176;49.502;11.754;2023-04-06T19:50:08;97071.50;;;9.61;44.98
21185;BME280;18176;49.502;11.754;2023-04-06T19:54:09;97056.53;;;9.55;45.19
21185;BME280;18176;49.502;11.754;2023-04-06T19:58:09;97077.81;;;9.42;45.52
21185;BME280;18176;49.502;11.754;2023-04-06T20:02:10;96990.97;;;8.78;46.25
21185;BME280;18176;49.502;11.754;2023-04-06T20:06:14;97049.25;;;9.07;46.08
21185;BME280;18176;49.502;11.754;2023-04-06T20:10:16;97060.47;;;9.28;45.88
21185;BME280;18176;49.502;11.754;2023-04-06T20:14:16;97076.91;;;9.11;46.66
21185;BME280;18176;49.502;11.754;2023-04-06T20:18:19;97082.13;;;9.18;46.48
21185;BME280;18176;49.502;11.754;2023-04-06T20:22:22;97078.03;;;8.97;46.90
21185;BME280;18176;49.502;11.754;2023-04-06T20:26:22;97079.16;;;8.83;47.12
21185;BME280;18176;49.502;11.754;2023-04-06T20:30:23;97078.03;;;8.66;47.71
21185;BME280;18176;49.502;11.754;2023-04-06T20:34:23;97068.00;;;8.50;47.72
21185;BME280;18176;49.502;11.754;2023-04-06T20:38:38;97075.41;;;8.35;48.22
21185;BME280;18176;49.502;11.754;2023-04-06T20:42:39;97062.44;;;8.27;48.43
21185;BME280;18176;49.502;11.754;2023-04-06T20:46:39;97038.16;;;8.12;48.22
21185;BME280;18176;49.502;11.754;2023-04-06T20:50:42;97066.91;;;8.20;48.05
21185;BME280;18176;49.502;11.754;2023-04-06T20:54:45;97060.06;;;8.12;48.50
21185;BME280;18176;49.502;11.754;2023-04-06T20:58:47;97061.34;;;7.97;49.06
21185;BME280;18176;49.502;11.754;2023-04-06T21:02:48;97059.19;;;7.80;49.87
21185;BME280;18176;49.502;11.754;2023-04-06T21:06:49;97057.63;;;7.66;50.23
21185;BME280;18176;49.502;11.754;2023-04-06T21:10:52;97064.91;;;7.64;50.86
21185;BME280;18176;49.502;11.754;2023-04-06T21:14:52;97057.44;;;7.61;50.74
21185;BME280;18176;49.502;11.754;2023-04-06T21:18:55;97059.50;;;7.59;50.07
21185;BME280;18176;49.502;11.754;2023-04-06T21:22:55;97053.00;;;7.49;49.63
21185;BME280;18176;49.502;11.754;2023-04-06T21:26:59;97061.56;;;7.31;50.41